sensor_id;sensor_type;location;lat;lon;timestamp;P1;durP1;ratioP1;P2;durP2;ratioP2
23416;SDS011;11881;42.432;25.632;2024-03-02T00:00:49;38.23;;;21.73;;
23416;SDS011;11881;42.432;25.632;2024-03-02T00:03:15;41.10;;;21.57;;
23416;SDS011;11881;42.432;25.632;2024-03-02T00:05:41;39.00;;;21.90;;
23416;SDS011;11881;42.432;25.632;2024-03-02T00:08:06;45.03;;;21.80;;
23416;SDS011;11881;42.432;25.632;2024-03-02T00:10:37;41.47;;;21.93;;
23416;SDS011;11881;42.432;25.632;2024-03-02T00:13:06;40.00;;;22.23;;
23416;SDS011;11881;42.432;25.632;2024-03-02T00:15:51;43.87;;;22.67;;
23416;SDS011;11881;42.432;25.632;2024-03-02T00:18:31;43.83;;;24.07;;
23416;SDS011;11881;42.432;25.632;2024-03-02T00:20:58;50.77;;;24.77;;
23416;SDS011;11881;42.432;25.632;2024-03-02T00:23:31;50.53;;;25.53;;
23416;SDS011;11881;42.432;25.632;2024-03-02T00:25:57;49.10;;;25.00;;
23416;SDS011;11881;42.432;25.632;2024-03-02T00:28:34;47.77;;;24.97;;
23416;SDS011;11881;42.432;25.632;2024-03-02T00:33:42;50.07;;;25.23;;
23416;SDS011;11881;42.432;25.632;2024-03-02T00:36:09;53.83;;;26.50;;
23416;SDS011;11881;42.432;25.632;2024-03-02T00:38:42;50.30;;;26.77;;
23416;SDS011;11881;42.432;25.632;2024-03-02T00:41:15;56.07;;;28.37;;
23416;SDS011;11881;42.432;25.632;2024-03-02T00:46:34;53.20;;;28.40;;
23416;SDS011;11881;42.432;25.632;2024-03-02T00:49:02;52.60;;;27.67;;
23416;SDS011;11881;42.432;25.632;2024-03-02T00:51:29;54.63;;;27.33;;
23416;SDS011;11881;42.432;25.632;2024-03-02T00:53:58;54.57;;;27.97;;
23416;SDS011;11881;42.432;25.632;2024-03-02T00:56:26;53.77;;;27.60;;
23416;SDS011;11881;42.432;25.632;2024-03-02T00:58:52;56.17;;;27.90;;
23416;SDS011;11881;42.432;25.632;2024-03-02T01:01:18;54.13;;;26.33;;
23416;SDS011;11881;42.432;25.632;2024-03-02T01:03:44;52.13;;;26.93;;
23416;SDS011;11881;42.432;25.632;2024-03-02T01:06:10;47.93;;;25.63;;
23416;SDS011;11881;42.432;25.632;2024-03-02T01:08:37;54.83;;;27.37;;
23416;SDS011;11881;42.432;25.632;2024-03-02T01:11:03;53.60;;;26.53;;
23416;SDS011;11881;42.432;25.632;2024-03-02T01:13:29;55.17;;;27.73;;
23416;SDS011;11881;42.432;25.632;2024-03-02T01:15:55;55.33;;;25.83;;
23416;SDS011;11881;42.432;25.632;2024-03-02T01:18:21;53.90;;;26.43;;
23416;SDS011;11881;42.432;25.632;2024-03-02T01:20:50;54.13;;;26.17;;
23416;SDS011;11881;42.432;25.632;2024-03-02T01:23:21;49.63;;;25.90;;
23416;SDS011;11881;42.432;25.632;2024-03-02T01:25:47;53.77;;;26.77;;
23416;SDS011;11881;42.432;25.632;2024-03-02T01:28:13;49.53;;;24.90;;
23416;SDS011;11881;42.432;25.632;2024-03-02T01:30:39;56.77;;;26.67;;
23416;SDS011;11881;42.432;25.632;2024-03-02T01:33:05;56.77;;;26.83;;
23416;SDS011;11881;42.432;25.632;2024-03-02T01:35:31;52.07;;;26.10;;
23416;SDS011;11881;42.432;25.632;2024-03-02T01:37:56;52.70;;;25.33;;
23416;SDS011;11881;42.432;25.632;2024-03-02T01:40:22;50.37;;;25.13;;
23416;SDS011;11881;42.432;25.632;2024-03-02T01:42:51;47.60;;;24.80;;
23416;SDS011;11881;42.432;25.632;2024-03-02T01:45:19;52.97;;;25.40;;
23416;SDS011;11881;42.432;25.632;2024-03-02T01:47:45;53.67;;;26.17;;
23416;SDS011;11881;42.432;25.632;2024-03-02T01:50:11;53.90;;;26.13;;
23416;SDS011;11881;42.432;25.632;2024-03-02T01:52:36;55.37;;;25.87;;
23416;SDS011;11881;42.432;25.632;2024-03-02T01:55:03;52.50;;;25.87;;
23416;SDS011;11881;42.432;25.632;2024-03-02T01:57:29;55.03;;;26.97;;
23416;SDS011;11881;42.432;25.632;2024-03-02T01:59:55;56.00;;;27.30;;
23416;SDS011;11881;42.432;25.632;2024-03-02T02:02:21;51.20;;;26.03;;
23416;SDS011;11881;42.432;25.632;2024-03-02T02:04:46;52.10;;;26.70;;
23416;SDS011;11881;42.432;25.632;2024-03-02T02:07:12;53.40;;;26.73;;
23416;SDS011;11881;42.432;25.632;2024-03-02T02:09:40;52.10;;;26.23;;
23416;SDS011;11881;42.432;25.632;2024-03-02T02:12:07;51.37;;;25.13;;
23416;SDS011;11881;42.432;25.632;2024-03-02T02:14:32;48.07;;;24.60;;
23416;SDS011;11881;42.432;25.632;2024-03-02T02:16:59;49.63;;;24.40;;
23416;SDS011;11881;42.432;25.632;2024-03-02T02:19:24;48.03;;;24.53;;
23416;SDS011;11881;42.432;25.632;2024-03-02T02:21:50;47.03;;;24.10;;
23416;SDS011;11881;42.432;25.632;2024-03-02T02:24:15;48.57;;;25.50;;
23416;SDS011;11881;42.432;25.632;2024-03-02T02:26:41;49.10;;;26.00;;
23416;SDS011;11881;42.432;25.632;2024-03-02T02:29:06;53.20;;;26.07;;
23416;SDS011;11881;42.432;25.632;2024-03-02T02:31:38;47.40;;;23.50;;
23416;SDS011;11881;42.432;25.632;2024-03-02T02:34:05;50.30;;;24.33;;
23416;SDS011;11881;42.432;25.632;2024-03-02T02:36:31;47.70;;;25.10;;
23416;SDS011;11881;42.432;25.632;2024-03-02T02:38:58;55.47;;;24.37;;
23416;SDS011;11881;42.432;25.632;2024-03-02T02:41:29;48.93;;;25.00;;
23416;SDS011;11881;42.432;25.632;2024-03-02T02:43:54;51.10;;;24.57;;
23416;SDS011;11881;42.432;25.632;2024-03-02T02:46:20;46.57;;;23.80;;
23416;SDS011;11881;42.432;25.632;2024-03-02T02:48:45;50.70;;;23.70;;
23416;SDS011;11881;42.432;25.632;2024-03-02T02:51:11;49.50;;;23.93;;
23416;SDS011;11881;42.432;25.632;2024-03-02T02:53:37;50.10;;;24.17;;
23416;SDS011;11881;42.432;25.632;2024-03-02T02:56:05;48.77;;;23.97;;
23416;SDS011;11881;42.432;25.632;2024-03-02T02:58:34;45.30;;;23.53;;
23416;SDS011;11881;42.432;25.632;2024-03-02T03:00:59;50.57;;;24.73;;
23416;SDS011;11881;42.432;25.632;2024-03-02T03:03:25;45.47;;;23.70;;
23416;SDS011;11881;42.432;25.632;2024-03-02T03:05:50;49.40;;;24.07;;
23416;SDS011;11881;42.432;25.632;2024-03-02T03:08:16;47.03;;;23.83;;
23416;SDS011;11881;42.432;25.632;2024-03-02T03:10:42;48.47;;;22.90;;
23416;SDS011;11881;42.432;25.632;2024-03-02T03:13:07;49.87;;;22.90;;
23416;SDS011;11881;42.432;25.632;2024-03-02T03:15:36;49.47;;;22.80;;
23416;SDS011;11881;42.432;25.632;2024-03-02T03:18:02;53.13;;;24.40;;
23416;SDS011;11881;42.432;25.632;2024-03-02T03:20:29;49.97;;;23.90;;
23416;SDS011;11881;42.432;25.632;2024-03-02T03:22:55;48.67;;;24.30;;
23416;SDS011;11881;42.432;25.632;2024-03-02T03:25:20;49.37;;;23.83;;
23416;SDS011;11881;42.432;25.632;2024-03-02T03:27:46;48.27;;;23.90;;
23416;SDS011;11881;42.432;25.632;2024-03-02T03:30:12;50.37;;;24.33;;
23416;SDS011;11881;42.432;25.632;2024-03-02T03:32:37;50.27;;;24.10;;
23416;SDS011;11881;42.432;25.632;2024-03-02T03:35:03;47.77;;;24.03;;
23416;SDS011;11881;42.432;25.632;2024-03-02T03:37:29;55.00;;;25.07;;
23416;SDS011;11881;42.432;25.632;2024-03-02T03:40:04;57.00;;;25.83;;
23416;SDS011;11881;42.432;25.632;2024-03-02T03:42:39;50.80;;;24.47;;
23416;SDS011;11881;42.432;25.632;2024-03-02T03:45:08;51.33;;;25.93;;
23416;SDS011;11881;42.432;25.632;2024-03-02T03:47:34;53.10;;;24.77;;
23416;SDS011;11881;42.432;25.632;2024-03-02T03:49:59;50.03;;;24.40;;
23416;SDS011;11881;42.432;25.632;2024-03-02T03:52:25;54.03;;;25.30;;
23416;SDS011;11881;42.432;25.632;2024-03-02T03:54:50;46.03;;;24.20;;
23416;SDS011;11881;42.432;25.632;2024-03-02T03:57:16;51.80;;;24.20;;
23416;SDS011;11881;42.432;25.632;2024-03-02T03:59:42;51.83;;;23.10;;
23416;SDS011;11881;42.432;25.632;2024-03-02T04:02:08;45.50;;;24.00;;
23416;SDS011;11881;42.432;25.632;2024-03-02T04:04:34;47.60;;;24.70;;
23416;SDS011;11881;42.432;25.632;2024-03-02T04:07:00;44.33;;;23.23;;
23416;SDS011;11881;42.432;25.632;2024-03-02T04:09:26;43.77;;;22.60;;
23416;SDS011;11881;42.432;25.632;2024-03-02T04:11:52;46.03;;;22.77;;
23416;SDS011;11881;42.432;25.632;2024-03-02T04:14:18;46.27;;;22.90;;
23416;SDS011;11881;42.432;25.632;2024-03-02T04:16:43;49.50;;;25.13;;
23416;SDS011;11881;42.432;25.632;2024-03-02T04:19:09;44.00;;;22.67;;
23416;SDS011;11881;42.432;25.632;2024-03-02T04:21:35;42.07;;;20.87;;
23416;SDS011;11881;42.432;25.632;2024-03-02T04:24:00;46.23;;;22.07;;
23416;SDS011;11881;42.432;25.632;2024-03-02T04:26:26;38.87;;;20.90;;
23416;SDS011;11881;42.432;25.632;2024-03-02T04:28:52;45.30;;;23.30;;
23416;SDS011;11881;42.432;25.632;2024-03-02T04:31:17;38.07;;;20.30;;
23416;SDS011;11881;42.432;25.632;2024-03-02T04:33:43;43.23;;;20.17;;
23416;SDS011;11881;42.432;25.632;2024-03-02T04:36:09;41.60;;;20.07;;
23416;SDS011;11881;42.432;25.632;2024-03-02T04:38:35;37.27;;;18.57;;
23416;SDS011;11881;42.432;25.632;2024-03-02T04:41:00;33.90;;;17.27;;
23416;SDS011;11881;42.432;25.632;2024-03-02T04:43:26;34.73;;;16.30;;
23416;SDS011;11881;42.432;25.632;2024-03-02T04:45:51;32.67;;;14.87;;
23416;SDS011;11881;42.432;25.632;2024-03-02T04:48:17;32.33;;;15.67;;
23416;SDS011;11881;42.432;25.632;2024-03-02T04:50:43;29.37;;;14.77;;
23416;SDS011;11881;42.432;25.632;2024-03-02T04:53:08;32.13;;;14.67;;
23416;SDS011;11881;42.432;25.632;2024-03-02T04:55:34;33.43;;;15.63;;
23416;SDS011;11881;42.432;25.632;2024-03-02T04:57:59;31.07;;;16.50;;
23416;SDS011;11881;42.432;25.632;2024-03-02T05:00:25;36.03;;;16.63;;
23416;SDS011;11881;42.432;25.632;2024-03-02T05:02:50;36.90;;;19.53;;
23416;SDS011;11881;42.432;25.632;2024-03-02T05:05:16;39.10;;;19.80;;
23416;SDS011;11881;42.432;25.632;2024-03-02T05:07:42;37.60;;;18.33;;
23416;SDS011;11881;42.432;25.632;2024-03-02T05:10:09;43.03;;;21.27;;
23416;SDS011;11881;42.432;25.632;2024-03-02T05:12:35;43.67;;;21.77;;
23416;SDS011;11881;42.432;25.632;2024-03-02T05:15:13;43.70;;;22.27;;
23416;SDS011;11881;42.432;25.632;2024-03-02T05:17:39;43.23;;;22.00;;
23416;SDS011;11881;42.432;25.632;2024-03-02T05:20:08;44.53;;;21.57;;
23416;SDS011;11881;42.432;25.632;2024-03-02T05:22:34;44.40;;;22.30;;
23416;SDS011;11881;42.432;25.632;2024-03-02T05:25:00;46.77;;;23.40;;
23416;SDS011;11881;42.432;25.632;2024-03-02T05:27:26;46.47;;;23.20;;
23416;SDS011;11881;42.432;25.632;2024-03-02T05:29:52;48.63;;;23.30;;
23416;SDS011;11881;42.432;25.632;2024-03-02T05:32:17;43.60;;;22.80;;
23416;SDS011;11881;42.432;25.632;2024-03-02T05:34:43;48.50;;;20.50;;
23416;SDS011;11881;42.432;25.632;2024-03-02T05:37:09;36.00;;;19.40;;
23416;SDS011;11881;42.432;25.632;2024-03-02T05:39:34;39.10;;;19.93;;
23416;SDS011;11881;42.432;25.632;2024-03-02T05:42:00;34.57;;;17.27;;
23416;SDS011;11881;42.432;25.632;2024-03-02T05:44:25;30.67;;;15.47;;
23416;SDS011;11881;42.432;25.632;2024-03-02T05:46:51;26.97;;;14.57;;
23416;SDS011;11881;42.432;25.632;2024-03-02T05:49:16;25.93;;;13.40;;
23416;SDS011;11881;42.432;25.632;2024-03-02T05:51:42;25.40;;;14.30;;
23416;SDS011;11881;42.432;25.632;2024-03-02T05:54:07;29.00;;;14.90;;
23416;SDS011;11881;42.432;25.632;2024-03-02T05:56:32;29.67;;;15.23;;
23416;SDS011;11881;42.432;25.632;2024-03-02T05:58:58;25.13;;;14.60;;
23416;SDS011;11881;42.432;25.632;2024-03-02T06:04:05;31.63;;;15.67;;
23416;SDS011;11881;42.432;25.632;2024-03-02T06:06:31;31.23;;;16.03;;
23416;SDS011;11881;42.432;25.632;2024-03-02T06:08:59;31.03;;;16.17;;
23416;SDS011;11881;42.432;25.632;2024-03-02T06:11:25;32.00;;;15.63;;
23416;SDS011;11881;42.432;25.632;2024-03-02T06:13:50;29.03;;;14.33;;
23416;SDS011;11881;42.432;25.632;2024-03-02T06:16:16;29.10;;;14.33;;
23416;SDS011;11881;42.432;25.632;2024-03-02T06:18:41;27.17;;;14.87;;
23416;SDS011;11881;42.432;25.632;2024-03-02T06:21:07;25.30;;;15.23;;
23416;SDS011;11881;42.432;25.632;2024-03-02T06:23:33;28.60;;;14.60;;
23416;SDS011;11881;42.432;25.632;2024-03-02T06:26:00;27.77;;;15.77;;
23416;SDS011;11881;42.432;25.632;2024-03-02T06:28:26;30.07;;;15.93;;
23416;SDS011;11881;42.432;25.632;2024-03-02T06:30:52;30.13;;;15.37;;
23416;SDS011;11881;42.432;25.632;2024-03-02T06:33:17;32.80;;;16.23;;
23416;SDS011;11881;42.432;25.632;2024-03-02T06:35:43;31.30;;;16.87;;
23416;SDS011;11881;42.432;25.632;2024-03-02T06:38:08;27.53;;;15.27;;
23416;SDS011;11881;42.432;25.632;2024-03-02T06:40:33;32.07;;;15.40;;
23416;SDS011;11881;42.432;25.632;2024-03-02T06:42:59;28.60;;;16.17;;
23416;SDS011;11881;42.432;25.632;2024-03-02T06:45:25;33.43;;;16.50;;
23416;SDS011;11881;42.432;25.632;2024-03-02T06:47:50;36.67;;;16.50;;
23416;SDS011;11881;42.432;25.632;2024-03-02T06:50:15;33.83;;;17.43;;
23416;SDS011;11881;42.432;25.632;2024-03-02T06:52:41;39.53;;;19.80;;
23416;SDS011;11881;42.432;25.632;2024-03-02T06:55:07;40.10;;;20.03;;
23416;SDS011;11881;42.432;25.632;2024-03-02T06:57:32;44.77;;;21.93;;
23416;SDS011;11881;42.432;25.632;2024-03-02T06:59:58;51.50;;;22.13;;
23416;SDS011;11881;42.432;25.632;2024-03-02T07:02:24;49.00;;;22.33;;
23416;SDS011;11881;42.432;25.632;2024-03-02T07:04:52;46.43;;;21.07;;
23416;SDS011;11881;42.432;25.632;2024-03-02T07:07:20;37.10;;;17.60;;
23416;SDS011;11881;42.432;25.632;2024-03-02T07:09:46;28.63;;;14.90;;
23416;SDS011;11881;42.432;25.632;2024-03-02T07:12:12;29.07;;;15.37;;
23416;SDS011;11881;42.432;25.632;2024-03-02T07:14:38;30.77;;;15.70;;
23416;SDS011;11881;42.432;25.632;2024-03-02T07:17:33;32.13;;;14.83;;
23416;SDS011;11881;42.432;25.632;2024-03-02T07:19:59;29.03;;;15.73;;
23416;SDS011;11881;42.432;25.632;2024-03-02T07:22:24;27.00;;;14.63;;
23416;SDS011;11881;42.432;25.632;2024-03-02T07:24:50;30.07;;;15.53;;
23416;SDS011;11881;42.432;25.632;2024-03-02T07:27:16;33.43;;;15.60;;
23416;SDS011;11881;42.432;25.632;2024-03-02T07:29:42;31.90;;;16.17;;
23416;SDS011;11881;42.432;25.632;2024-03-02T07:32:08;35.40;;;17.77;;
23416;SDS011;11881;42.432;25.632;2024-03-02T07:34:35;36.50;;;17.70;;
23416;SDS011;11881;42.432;25.632;2024-03-02T07:37:00;30.90;;;17.50;;
23416;SDS011;11881;42.432;25.632;2024-03-02T07:39:26;29.30;;;16.33;;
23416;SDS011;11881;42.432;25.632;2024-03-02T07:41:52;31.17;;;17.20;;
23416;SDS011;11881;42.432;25.632;2024-03-02T07:44:18;33.33;;;17.80;;
23416;SDS011;11881;42.432;25.632;2024-03-02T07:46:47;36.60;;;19.13;;
23416;SDS011;11881;42.432;25.632;2024-03-02T07:49:15;40.73;;;19.73;;
23416;SDS011;11881;42.432;25.632;2024-03-02T07:51:40;35.70;;;19.80;;
23416;SDS011;11881;42.432;25.632;2024-03-02T07:54:06;41.93;;;20.90;;
23416;SDS011;11881;42.432;25.632;2024-03-02T07:56:32;38.17;;;20.23;;
23416;SDS011;11881;42.432;25.632;2024-03-02T07:58:58;43.73;;;20.97;;
23416;SDS011;11881;42.432;25.632;2024-03-02T08:01:29;39.40;;;21.17;;
23416;SDS011;11881;42.432;25.632;2024-03-02T08:03:55;43.80;;;20.60;;
23416;SDS011;11881;42.432;25.632;2024-03-02T08:06:24;40.43;;;21.03;;
23416;SDS011;11881;42.432;25.632;2024-03-02T08:08:56;40.67;;;21.17;;
23416;SDS011;11881;42.432;25.632;2024-03-02T08:11:22;40.20;;;22.17;;
23416;SDS011;11881;42.432;25.632;2024-03-02T08:13:48;38.83;;;21.97;;
23416;SDS011;11881;42.432;25.632;2024-03-02T08:16:17;39.13;;;22.67;;
23416;SDS011;11881;42.432;25.632;2024-03-02T08:18:49;41.60;;;21.90;;
23416;SDS011;11881;42.432;25.632;2024-03-02T08:21:15;40.07;;;21.63;;
23416;SDS011;11881;42.432;25.632;2024-03-02T08:23:41;41.00;;;21.50;;
23416;SDS011;11881;42.432;25.632;2024-03-02T08:26:10;40.73;;;20.43;;
23416;SDS011;11881;42.432;25.632;2024-03-02T08:28:36;36.07;;;20.47;;
23416;SDS011;11881;42.432;25.632;2024-03-02T08:31:03;31.60;;;19.53;;
23416;SDS011;11881;42.432;25.632;2024-03-02T08:33:28;39.10;;;20.27;;
23416;SDS011;11881;42.432;25.632;2024-03-02T08:35:54;33.60;;;18.37;;
23416;SDS011;11881;42.432;25.632;2024-03-02T08:38:21;35.30;;;18.40;;
23416;SDS011;11881;42.432;25.632;2024-03-02T08:40:46;35.77;;;18.27;;
23416;SDS011;11881;42.432;25.632;2024-03-02T08:43:12;32.83;;;18.83;;
23416;SDS011;11881;42.432;25.632;2024-03-02T08:45:38;29.50;;;17.27;;
23416;SDS011;11881;42.432;25.632;2024-03-02T08:48:05;32.10;;;18.30;;
23416;SDS011;11881;42.432;25.632;2024-03-02T08:50:33;34.70;;;19.70;;
23416;SDS011;11881;42.432;25.632;2024-03-02T08:52:59;35.87;;;19.70;;
23416;SDS011;11881;42.432;25.632;2024-03-02T08:55:24;37.23;;;20.57;;
23416;SDS011;11881;42.432;25.632;2024-03-02T08:57:50;36.60;;;19.90;;
23416;SDS011;11881;42.432;25.632;2024-03-02T09:00:16;36.90;;;19.00;;
23416;SDS011;11881;42.432;25.632;2024-03-02T09:02:45;37.20;;;18.30;;
23416;SDS011;11881;42.432;25.632;2024-03-02T09:05:11;36.33;;;19.53;;
23416;SDS011;11881;42.432;25.632;2024-03-02T09:07:37;35.33;;;19.67;;
23416;SDS011;11881;42.432;25.632;2024-03-02T09:10:04;33.90;;;18.73;;
23416;SDS011;11881;42.432;25.632;2024-03-02T09:12:31;35.40;;;19.60;;
23416;SDS011;11881;42.432;25.632;2024-03-02T09:14:57;35.37;;;18.13;;
23416;SDS011;11881;42.432;25.632;2024-03-02T09:17:23;28.50;;;17.33;;
23416;SDS011;11881;42.432;25.632;2024-03-02T09:19:49;34.10;;;18.47;;
23416;SDS011;11881;42.432;25.632;2024-03-02T09:22:18;37.00;;;18.00;;
23416;SDS011;11881;42.432;25.632;2024-03-02T09:24:43;29.87;;;17.37;;
23416;SDS011;11881;42.432;25.632;2024-03-02T09:27:09;43.33;;;18.67;;
23416;SDS011;11881;42.432;25.632;2024-03-02T09:29:34;36.13;;;18.57;;
23416;SDS011;11881;42.432;25.632;2024-03-02T09:32:00;33.70;;;19.30;;
23416;SDS011;11881;42.432;25.632;2024-03-02T09:34:25;35.23;;;18.97;;
23416;SDS011;11881;42.432;25.632;2024-03-02T09:36:51;38.03;;;19.63;;
23416;SDS011;11881;42.432;25.632;2024-03-02T09:39:17;34.57;;;18.60;;
23416;SDS011;11881;42.432;25.632;2024-03-02T09:41:43;33.23;;;19.23;;
23416;SDS011;11881;42.432;25.632;2024-03-02T09:44:09;32.00;;;19.40;;
23416;SDS011;11881;42.432;25.632;2024-03-02T09:46:34;33.67;;;19.83;;
23416;SDS011;11881;42.432;25.632;2024-03-02T09:49:01;32.87;;;19.80;;
23416;SDS011;11881;42.432;25.632;2024-03-02T09:51:27;35.33;;;20.63;;
23416;SDS011;11881;42.432;25.632;2024-03-02T09:53:53;39.93;;;20.07;;
23416;SDS011;11881;42.432;25.632;2024-03-02T09:56:23;40.00;;;21.53;;
23416;SDS011;11881;42.432;25.632;2024-03-02T09:58:49;36.33;;;19.63;;
23416;SDS011;11881;42.432;25.632;2024-03-02T10:01:14;32.70;;;18.33;;
23416;SDS011;11881;42.432;25.632;2024-03-02T10:03:40;34.57;;;18.80;;
23416;SDS011;11881;42.432;25.632;2024-03-02T10:08:50;30.03;;;18.07;;
23416;SDS011;11881;42.432;25.632;2024-03-02T10:11:26;28.97;;;17.97;;
23416;SDS011;11881;42.432;25.632;2024-03-02T10:14:08;31.47;;;17.60;;
23416;SDS011;11881;42.432;25.632;2024-03-02T10:16:39;32.37;;;18.33;;
23416;SDS011;11881;42.432;25.632;2024-03-02T10:19:19;32.53;;;17.77;;
23416;SDS011;11881;42.432;25.632;2024-03-02T10:21:48;32.10;;;16.73;;
23416;SDS011;11881;42.432;25.632;2024-03-02T10:24:16;28.27;;;17.57;;
23416;SDS011;11881;42.432;25.632;2024-03-02T10:26:42;29.40;;;16.30;;
23416;SDS011;11881;42.432;25.632;2024-03-02T10:29:09;31.67;;;17.13;;
23416;SDS011;11881;42.432;25.632;2024-03-02T10:31:39;34.17;;;18.10;;
23416;SDS011;11881;42.432;25.632;2024-03-02T10:34:11;27.00;;;14.73;;
23416;SDS011;11881;42.432;25.632;2024-03-02T10:36:40;31.40;;;15.23;;
23416;SDS011;11881;42.432;25.632;2024-03-02T10:39:07;30.27;;;15.23;;
23416;SDS011;11881;42.432;25.632;2024-03-02T10:41:35;26.70;;;14.47;;
23416;SDS011;11881;42.432;25.632;2024-03-02T10:44:04;28.53;;;15.30;;
23416;SDS011;11881;42.432;25.632;2024-03-02T10:46:34;28.53;;;15.13;;
23416;SDS011;11881;42.432;25.632;2024-03-02T10:49:02;29.60;;;15.37;;
23416;SDS011;11881;42.432;25.632;2024-03-02T10:51:29;32.33;;;16.73;;
23416;SDS011;11881;42.432;25.632;2024-03-02T10:54:01;44.27;;;21.60;;
23416;SDS011;11881;42.432;25.632;2024-03-02T10:56:29;36.37;;;18.03;;
23416;SDS011;11881;42.432;25.632;2024-03-02T11:01:31;29.23;;;17.67;;
23416;SDS011;11881;42.432;25.632;2024-03-02T11:03:58;28.10;;;16.53;;
23416;SDS011;11881;42.432;25.632;2024-03-02T11:06:24;30.77;;;15.80;;
23416;SDS011;11881;42.432;25.632;2024-03-02T11:08:53;45.33;;;23.70;;
23416;SDS011;11881;42.432;25.632;2024-03-02T11:11:27;50.20;;;28.00;;
23416;SDS011;11881;42.432;25.632;2024-03-02T11:14:00;64.63;;;32.87;;
23416;SDS011;11881;42.432;25.632;2024-03-02T11:16:36;63.73;;;33.67;;
23416;SDS011;11881;42.432;25.632;2024-03-02T11:19:07;38.70;;;22.03;;
23416;SDS011;11881;42.432;25.632;2024-03-02T11:21:36;38.87;;;21.33;;
23416;SDS011;11881;42.432;25.632;2024-03-02T11:26:46;32.30;;;17.10;;
23416;SDS011;11881;42.432;25.632;2024-03-02T11:32:06;32.17;;;16.60;;
23416;SDS011;11881;42.432;25.632;2024-03-02T11:34:39;31.43;;;16.63;;
23416;SDS011;11881;42.432;25.632;2024-03-02T11:37:10;33.90;;;17.13;;
23416;SDS011;11881;42.432;25.632;2024-03-02T11:39:37;28.63;;;16.70;;
23416;SDS011;11881;42.432;25.632;2024-03-02T11:42:05;29.17;;;17.23;;
23416;SDS011;11881;42.432;25.632;2024-03-02T11:44:35;29.10;;;17.23;;
23416;SDS011;11881;42.432;25.632;2024-03-02T11:47:02;32.27;;;17.23;;
23416;SDS011;11881;42.432;25.632;2024-03-02T11:49:50;32.47;;;17.60;;
23416;SDS011;11881;42.432;25.632;2024-03-02T11:52:17;35.60;;;18.00;;
23416;SDS011;11881;42.432;25.632;2024-03-02T11:54:46;34.67;;;18.27;;
23416;SDS011;11881;42.432;25.632;2024-03-02T11:57:14;29.60;;;18.37;;
23416;SDS011;11881;42.432;25.632;2024-03-02T11:59:41;37.13;;;19.10;;
23416;SDS011;11881;42.432;25.632;2024-03-02T12:02:06;33.30;;;18.50;;
23416;SDS011;11881;42.432;25.632;2024-03-02T12:04:40;31.60;;;18.10;;
23416;SDS011;11881;42.432;25.632;2024-03-02T12:07:06;32.13;;;18.30;;
23416;SDS011;11881;42.432;25.632;2024-03-02T12:09:33;28.40;;;17.67;;
23416;SDS011;11881;42.432;25.632;2024-03-02T12:12:16;33.40;;;19.73;;
23416;SDS011;11881;42.432;25.632;2024-03-02T12:14:49;35.63;;;19.37;;
23416;SDS011;11881;42.432;25.632;2024-03-02T12:17:17;36.47;;;20.23;;
23416;SDS011;11881;42.432;25.632;2024-03-02T12:19:42;35.93;;;20.00;;
23416;SDS011;11881;42.432;25.632;2024-03-02T12:22:08;36.07;;;19.23;;
23416;SDS011;11881;42.432;25.632;2024-03-02T12:24:33;35.30;;;18.93;;
23416;SDS011;11881;42.432;25.632;2024-03-02T12:26:59;34.97;;;18.40;;
23416;SDS011;11881;42.432;25.632;2024-03-02T12:29:25;34.57;;;20.10;;
23416;SDS011;11881;42.432;25.632;2024-03-02T12:31:51;36.93;;;19.43;;
23416;SDS011;11881;42.432;25.632;2024-03-02T12:34:17;29.57;;;18.20;;
23416;SDS011;11881;42.432;25.632;2024-03-02T12:36:45;38.90;;;20.20;;
23416;SDS011;11881;42.432;25.632;2024-03-02T12:39:14;35.47;;;19.03;;
23416;SDS011;11881;42.432;25.632;2024-03-02T12:41:43;37.27;;;19.17;;
23416;SDS011;11881;42.432;25.632;2024-03-02T12:44:09;37.80;;;19.30;;
23416;SDS011;11881;42.432;25.632;2024-03-02T12:46:35;36.23;;;19.97;;
23416;SDS011;11881;42.432;25.632;2024-03-02T12:49:10;37.27;;;19.27;;
23416;SDS011;11881;42.432;25.632;2024-03-02T12:51:40;35.70;;;19.63;;
23416;SDS011;11881;42.432;25.632;2024-03-02T12:54:07;39.87;;;20.90;;
23416;SDS011;11881;42.432;25.632;2024-03-02T12:56:33;33.10;;;19.47;;
23416;SDS011;11881;42.432;25.632;2024-03-02T12:59:01;39.93;;;19.93;;
23416;SDS011;11881;42.432;25.632;2024-03-02T13:01:26;33.50;;;20.20;;
23416;SDS011;11881;42.432;25.632;2024-03-02T13:03:52;32.77;;;19.37;;
23416;SDS011;11881;42.432;25.632;2024-03-02T13:06:20;39.50;;;20.33;;
23416;SDS011;11881;42.432;25.632;2024-03-02T13:08:46;35.70;;;21.07;;
23416;SDS011;11881;42.432;25.632;2024-03-02T13:11:12;37.37;;;22.03;;
23416;SDS011;11881;42.432;25.632;2024-03-02T13:13:38;34.80;;;20.47;;
23416;SDS011;11881;42.432;25.632;2024-03-02T13:16:11;38.63;;;21.10;;
23416;SDS011;11881;42.432;25.632;2024-03-02T13:18:40;35.90;;;20.10;;
23416;SDS011;11881;42.432;25.632;2024-03-02T13:21:05;37.27;;;22.27;;
23416;SDS011;11881;42.432;25.632;2024-03-02T13:23:31;35.87;;;21.60;;
23416;SDS011;11881;42.432;25.632;2024-03-02T13:25:57;37.47;;;20.73;;
23416;SDS011;11881;42.432;25.632;2024-03-02T13:28:26;34.67;;;21.20;;
23416;SDS011;11881;42.432;25.632;2024-03-02T13:30:51;44.13;;;20.70;;
23416;SDS011;11881;42.432;25.632;2024-03-02T13:33:17;38.30;;;22.23;;
23416;SDS011;11881;42.432;25.632;2024-03-02T13:35:48;66.93;;;24.17;;
23416;SDS011;11881;42.432;25.632;2024-03-02T13:38:16;45.53;;;21.53;;
23416;SDS011;11881;42.432;25.632;2024-03-02T13:40:42;37.37;;;20.60;;
23416;SDS011;11881;42.432;25.632;2024-03-02T13:43:08;34.27;;;20.63;;
23416;SDS011;11881;42.432;25.632;2024-03-02T13:45:33;40.40;;;22.20;;
23416;SDS011;11881;42.432;25.632;2024-03-02T13:47:59;39.63;;;23.60;;
23416;SDS011;11881;42.432;25.632;2024-03-02T13:50:26;36.13;;;23.40;;
23416;SDS011;11881;42.432;25.632;2024-03-02T13:52:52;35.00;;;23.33;;
23416;SDS011;11881;42.432;25.632;2024-03-02T13:55:17;41.83;;;23.93;;
23416;SDS011;11881;42.432;25.632;2024-03-02T13:57:43;35.80;;;21.93;;
23416;SDS011;11881;42.432;25.632;2024-03-02T14:00:08;39.03;;;23.30;;
23416;SDS011;11881;42.432;25.632;2024-03-02T14:02:37;38.57;;;22.93;;
23416;SDS011;11881;42.432;25.632;2024-03-02T14:05:02;38.67;;;22.70;;
23416;SDS011;11881;42.432;25.632;2024-03-02T14:07:28;36.93;;;21.43;;
23416;SDS011;11881;42.432;25.632;2024-03-02T14:09:54;38.60;;;23.10;;
23416;SDS011;11881;42.432;25.632;2024-03-02T14:12:19;39.37;;;22.63;;
23416;SDS011;11881;42.432;25.632;2024-03-02T14:14:45;35.90;;;22.50;;
23416;SDS011;11881;42.432;25.632;2024-03-02T14:17:10;35.20;;;23.10;;
23416;SDS011;11881;42.432;25.632;2024-03-02T14:19:39;36.13;;;21.67;;
23416;SDS011;11881;42.432;25.632;2024-03-02T14:22:05;45.40;;;23.50;;
23416;SDS011;11881;42.432;25.632;2024-03-02T14:24:31;39.60;;;22.13;;
23416;SDS011;11881;42.432;25.632;2024-03-02T14:26:56;37.83;;;22.10;;